createdAt,value
2023-04-02T00:04:26.303Z,9.44
2023-04-02T00:09:37.223Z,9.42
2023-04-02T00:14:39.814Z,9.53
2023-04-02T00:19:49.881Z,9.36
2023-04-02T00:24:55.045Z,9.17
2023-04-02T00:29:59.343Z,9.15
2023-04-02T00:35:05.746Z,9.32
2023-04-02T00:40:16.580Z,9.29
2023-04-02T00:45:25.656Z,9.23
2023-04-02T00:50:35.134Z,9.12
2023-04-02T00:55:41.294Z,8.93
2023-04-02T01:00:50.332Z,8.91
2023-04-02T01:06:01.526Z,8.30
2023-04-02T01:11:14.761Z,8.96
2023-04-02T01:16:26.144Z,8.64
2023-04-02T01:21:47.113Z,8.83
2023-04-02T01:26:57.489Z,8.64
2023-04-02T01:32:04.583Z,8.50
2023-04-02T01:37:22.142Z,8.31
2023-04-02T01:42:31.904Z,8.00
2023-04-02T01:47:36.447Z,8.71
2023-04-02T01:52:42.047Z,7.91
2023-04-02T01:57:51.032Z,8.92
2023-04-02T02:02:55.651Z,8.93
2023-04-02T02:08:01.255Z,8.54
2023-04-02T02:13:04.601Z,8.78
2023-04-02T02:18:12.014Z,8.50
2023-04-02T02:23:15.289Z,7.69
2023-04-02T02:28:22.435Z,8.71
2023-04-02T02:33:31.565Z,8.53
2023-04-02T02:38:48.196Z,8.86
2023-04-02T02:44:01.615Z,8.58
2023-04-02T02:49:08.247Z,8.39
2023-04-02T02:54:11.416Z,8.16
2023-04-02T02:59:17.010Z,8.25
2023-04-02T03:04:24.290Z,7.75
2023-04-02T03:09:37.836Z,8.45
2023-04-02T03:14:45.300Z,8.23
2023-04-02T03:19:56.299Z,7.92
2023-04-02T03:25:06.079Z,8.38
2023-04-02T03:30:27.855Z,8.02
2023-04-02T03:35:38.766Z,8.50
2023-04-02T03:40:45.099Z,7.51
2023-04-02T03:45:52.665Z,8.49
2023-04-02T03:51:04.018Z,8.16
2023-04-02T03:56:07.766Z,8.37
2023-04-02T04:01:18.438Z,8.41
2023-04-02T04:06:27.640Z,8.34
2023-04-02T04:11:33.733Z,8.19
2023-04-02T04:16:46.193Z,7.71
2023-04-02T04:35:32.337Z,8.00
2023-04-02T04:40:45.174Z,8.02
2023-04-02T04:45:52.552Z,7.86
2023-04-02T04:51:03.328Z,8.01
2023-04-02T04:56:18.806Z,7.83
2023-04-02T05:01:30.174Z,7.66
2023-04-02T05:06:38.874Z,7.67
2023-04-02T05:11:46.585Z,7.71
2023-04-02T05:16:58.010Z,7.54
2023-04-02T05:22:13.694Z,7.52
2023-04-02T05:27:25.995Z,7.66
2023-04-02T05:32:35.537Z,7.66
2023-04-02T05:37:41.105Z,7.65
2023-04-02T05:42:49.199Z,7.44
2023-04-02T05:47:59.766Z,7.32
2023-04-02T05:53:17.090Z,7.30
2023-04-02T06:03:46.050Z,7.44
2023-04-02T06:08:57.795Z,7.54
2023-04-02T06:14:01.522Z,7.45
2023-04-02T06:19:08.465Z,7.26
2023-04-02T06:24:16.893Z,7.34
2023-04-02T06:29:27.486Z,7.36
2023-04-02T06:34:33.037Z,7.25
2023-04-02T06:39:41.981Z,7.40
2023-04-02T06:44:45.257Z,7.29
2023-04-02T06:50:23.590Z,7.21
2023-04-02T06:55:38.569Z,7.34
2023-04-02T07:00:43.327Z,7.41
2023-04-02T07:05:50.926Z,7.36
2023-04-02T07:10:56.128Z,7.32
2023-04-02T07:16:00.441Z,7.23
2023-04-02T07:21:03.711Z,7.18
2023-04-02T07:26:09.457Z,7.19
2023-04-02T07:31:17.808Z,6.97
2023-04-02T07:36:22.397Z,7.12
2023-04-02T07:41:27.451Z,7.28
2023-04-02T07:46:30.125Z,7.48
2023-04-02T07:51:32.803Z,7.44
2023-04-02T07:56:38.381Z,7.12
2023-04-02T08:01:43.039Z,7.29
2023-04-02T08:06:46.851Z,7.09
2023-04-02T08:11:51.056Z,7.33
2023-04-02T08:16:56.121Z,7.37
2023-04-02T08:21:58.930Z,7.26
2023-04-02T08:27:02.950Z,7.07
2023-04-02T08:32:05.880Z,7.39
2023-04-02T08:37:10.894Z,7.43
2023-04-02T08:42:23.292Z,7.43
2023-04-02T08:47:29.757Z,7.59
2023-04-02T08:52:35.738Z,7.76
2023-04-02T08:57:47.941Z,7.93
2023-04-02T09:02:56.209Z,7.84
2023-04-02T09:08:02.938Z,7.80
2023-04-02T09:13:16.534Z,7.82
2023-04-02T09:18:20.432Z,7.85
2023-04-02T09:23:25.937Z,8.05
2023-04-02T09:28:29.972Z,8.02
2023-04-02T09:33:44.810Z,7.95
2023-04-02T09:39:06.399Z,7.88
2023-04-02T09:44:20.635Z,7.93
2023-04-02T09:49:26.615Z,7.87
2023-04-02T09:54:29.837Z,7.95
2023-04-02T09:59:34.125Z,7.98
2023-04-02T10:04:44.260Z,8.13
2023-04-02T10:09:58.909Z,8.36
2023-04-02T10:15:05.992Z,8.53
2023-04-02T10:20:20.517Z,8.70
2023-04-02T10:25:29.814Z,8.66
2023-04-02T10:30:44.649Z,8.66
2023-04-02T10:35:56.351Z,8.56
2023-04-02T10:41:01.604Z,8.66
2023-04-02T10:46:11.487Z,8.66
2023-04-02T10:51:29.456Z,8.76
2023-04-02T10:56:44.127Z,8.82
2023-04-02T11:01:56.310Z,8.75
2023-04-02T11:07:13.251Z,8.80
2023-04-02T11:12:24.280Z,8.60
2023-04-02T11:17:28.451Z,8.64
2023-04-02T11:22:31.375Z,8.47
2023-04-02T11:27:35.260Z,8.34
2023-04-02T11:32:42.650Z,8.51
2023-04-02T11:37:46.615Z,8.39
2023-04-02T11:42:49.716Z,8.47
2023-04-02T11:48:30.493Z,8.56
2023-04-02T11:53:35.833Z,8.61
2023-04-02T11:58:52.937Z,8.64
2023-04-02T12:04:36.848Z,8.73
2023-04-02T12:09:47.567Z,8.73
2023-04-02T12:14:52.796Z,8.89
2023-04-02T12:19:58.316Z,8.92
2023-04-02T12:25:04.795Z,8.88
2023-04-02T12:30:17.708Z,8.87
2023-04-02T12:35:29.802Z,8.75
2023-04-02T12:40:34.257Z,8.88
2023-04-02T12:45:37.501Z,8.87
2023-04-02T12:50:41.684Z,8.90
2023-04-02T12:55:48.031Z,9.02
2023-04-02T13:00:50.730Z,9.10
2023-04-02T13:05:56.025Z,8.97
2023-04-02T13:11:02.605Z,9.08
2023-04-02T13:16:08.541Z,9.09
2023-04-02T13:21:28.352Z,9.02
2023-04-02T13:26:32.700Z,9.06
2023-04-02T13:31:35.321Z,9.13
2023-04-02T13:36:38.106Z,9.68
2023-04-02T13:41:45.253Z,10.32
2023-04-02T13:46:48.026Z,10.88
2023-04-02T13:51:52.290Z,11.55
2023-04-02T13:56:57.382Z,11.79
2023-04-02T14:02:07.023Z,12.24
2023-04-02T14:07:25.916Z,12.42
2023-04-02T14:12:41.939Z,12.30
2023-04-02T14:17:56.269Z,12.25
2023-04-02T14:23:22.976Z,12.25
2023-04-02T14:28:38.071Z,12.27
2023-04-02T14:33:50.345Z,12.38
2023-04-02T14:38:58.613Z,12.32
2023-04-02T14:44:05.251Z,11.82
2023-04-02T14:49:22.296Z,11.59
2023-04-02T14:54:32.499Z,11.42
2023-04-02T14:59:41.981Z,11.39
2023-04-02T15:04:47.497Z,11.68
2023-04-02T15:09:55.751Z,11.49
2023-04-02T15:15:09.505Z,10.96
2023-04-02T15:20:15.838Z,11.36
2023-04-02T15:25:29.636Z,11.21
2023-04-02T15:30:38.696Z,11.39
2023-04-02T15:35:48.383Z,11.34
2023-04-02T15:40:58.395Z,10.98
2023-04-02T15:46:13.352Z,10.90
2023-04-02T15:51:29.678Z,11.04
2023-04-02T15:56:41.475Z,10.86
2023-04-02T16:01:55.076Z,10.66
2023-04-02T16:07:13.287Z,10.68
2023-04-02T16:12:17.483Z,10.75
2023-04-02T16:17:28.174Z,10.57
2023-04-02T16:22:33.249Z,10.42
2023-04-02T16:27:42.256Z,10.25
2023-04-02T16:32:57.709Z,10.24
2023-04-02T16:38:09.702Z,10.15
2023-04-02T16:43:25.865Z,10.20
2023-04-02T16:48:40.640Z,9.55
2023-04-02T16:54:01.523Z,10.04
2023-04-02T16:59:18.864Z,9.94
2023-04-02T17:04:53.497Z,9.90
2023-04-02T17:10:03.061Z,10.05
2023-04-02T17:15:26.752Z,9.96
2023-04-02T17:20:32.972Z,9.93
2023-04-02T17:25:40.653Z,9.84
2023-04-02T17:30:48.679Z,9.57
2023-04-02T17:36:03.582Z,9.64
2023-04-02T17:41:16.735Z,9.49
2023-04-02T17:46:29.776Z,9.50
2023-04-02T17:51:41.366Z,9.64
2023-04-02T17:57:11.870Z,9.38
2023-04-02T18:02:30.350Z,9.35
2023-04-02T18:07:42.967Z,9.16
2023-04-02T18:12:57.026Z,9.11
2023-04-02T18:18:09.090Z,9.04
2023-04-02T18:23:24.939Z,8.73
2023-04-02T18:28:41.762Z,8.95
2023-04-02T18:34:13.072Z,8.74
2023-04-02T18:39:28.735Z,8.56
2023-04-02T18:44:49.320Z,8.75
2023-04-02T18:50:04.428Z,8.46
2023-04-02T18:55:17.755Z,8.30
2023-04-02T19:00:29.418Z,8.52
2023-04-02T19:05:40.507Z,7.87
2023-04-02T19:10:46.332Z,8.00
2023-04-02T19:16:24.139Z,7.89
2023-04-02T19:21:37.273Z,8.20
2023-04-02T19:26:50.011Z,7.93
2023-04-02T19:31:59.685Z,7.67
2023-04-02T19:37:09.501Z,7.96
2023-04-02T19:42:22.497Z,7.95
2023-04-02T19:47:25.309Z,7.84
2023-04-02T19:52:27.855Z,7.46
2023-04-02T19:57:31.804Z,7.16
2023-04-02T20:02:34.500Z,7.04
2023-04-02T20:07:37.154Z,6.71
2023-04-02T20:12:41.212Z,7.49
2023-04-02T20:17:43.911Z,7.28
2023-04-02T20:22:50.950Z,7.56
2023-04-02T20:27:55.431Z,7.54
2023-04-02T20:33:01.346Z,6.88
2023-04-02T20:38:07.471Z,7.11
2023-04-02T20:43:13.033Z,7.28
2023-04-02T20:48:16.646Z,7.34
2023-04-02T20:53:19.259Z,7.35
2023-04-02T20:58:23.782Z,7.26
2023-04-02T21:03:26.511Z,6.95
2023-04-02T21:08:29.076Z,6.84
2023-04-02T21:13:35.898Z,6.91
2023-04-02T21:18:38.462Z,6.92
2023-04-02T21:23:41.904Z,6.77
2023-04-02T21:28:46.775Z,7.00
2023-04-02T21:33:51.898Z,6.76
2023-04-02T21:38:56.435Z,6.15
2023-04-02T21:44:02.951Z,6.47
2023-04-02T21:49:08.132Z,6.54
2023-04-02T21:54:10.889Z,6.66
2023-04-02T21:59:17.280Z,6.62
2023-04-02T22:04:21.716Z,5.46
2023-04-02T22:09:26.190Z,5.17
2023-04-02T22:14:30.701Z,5.85
2023-04-02T22:19:33.276Z,6.09
2023-04-02T22:24:35.840Z,6.12
2023-04-02T22:29:39.704Z,6.19
2023-04-02T22:34:45.519Z,5.95
2023-04-02T22:39:48.246Z,5.67
2023-04-02T22:44:52.394Z,5.34
2023-04-02T22:49:55.033Z,5.07
2023-04-02T22:54:57.578Z,5.85
2023-04-02T23:00:01.554Z,5.84
2023-04-02T23:05:04.615Z,5.38
2023-04-02T23:10:08.125Z,5.69
2023-04-02T23:15:12.518Z,5.36
2023-04-02T23:20:15.285Z,5.80
2023-04-02T23:25:17.972Z,5.56
2023-04-02T23:30:22.073Z,5.70
2023-04-02T23:35:25.259Z,5.62
2023-04-02T23:40:27.826Z,5.79
2023-04-02T23:45:31.783Z,5.08
2023-04-02T23:50:34.919Z,5.73
2023-04-02T23:55:37.775Z,5.55
